createdAt,value
2022-11-18T00:01:23.026Z,99572.88
2022-11-18T00:03:51.496Z,99552.63
2022-11-18T00:06:23.169Z,99547.38
2022-11-18T00:08:50.844Z,99544.38
2022-11-18T00:11:37.854Z,99547.09
2022-11-18T00:14:21.396Z,99569.00
2022-11-18T00:17:01.188Z,99550.31
2022-11-18T00:19:29.635Z,99539.50
2022-11-18T00:21:57.440Z,99548.66
2022-11-18T00:24:25.489Z,99564.81
2022-11-18T00:26:54.223Z,99568.16
2022-11-18T00:29:22.528Z,99559.88
2022-11-18T00:31:51.302Z,99555.72
2022-11-18T00:34:19.393Z,99544.09
2022-11-18T00:36:47.328Z,99544.09
2022-11-18T00:39:16.192Z,99548.09
2022-11-18T00:42:02.374Z,99555.97
2022-11-18T00:44:29.798Z,99555.59
2022-11-18T00:46:57.206Z,99545.09
2022-11-18T00:49:24.929Z,99537.06
2022-11-18T00:51:52.768Z,99538.13
2022-11-18T00:54:20.159Z,99549.47
2022-11-18T00:56:48.134Z,99553.94
2022-11-18T00:59:15.802Z,99537.72
2022-11-18T01:01:43.866Z,99534.81
2022-11-18T01:04:11.655Z,99533.41
2022-11-18T01:06:38.927Z,99533.13
2022-11-18T01:09:07.286Z,99512.44
2022-11-18T01:11:53.387Z,99507.16
2022-11-18T01:14:24.039Z,99520.59
2022-11-18T01:16:53.707Z,99519.50
2022-11-18T01:19:21.502Z,99537.22
2022-11-18T01:21:49.155Z,99543.56
2022-11-18T01:24:17.003Z,99529.47
2022-11-18T01:26:44.498Z,99527.66
2022-11-18T01:29:11.825Z,99533.75
2022-11-18T01:31:55.666Z,99530.44
2022-11-18T01:34:29.137Z,99520.03
2022-11-18T01:36:57.334Z,99523.38
2022-11-18T01:39:24.963Z,99512.47
2022-11-18T01:41:52.771Z,99514.28
2022-11-18T01:44:38.640Z,99506.78
2022-11-18T01:47:06.395Z,99498.50
2022-11-18T01:49:33.840Z,99490.44
2022-11-18T01:52:01.513Z,99485.75
2022-11-18T01:54:37.450Z,99468.19
2022-11-18T01:57:07.479Z,99458.53
2022-11-18T01:59:36.135Z,99447.72
2022-11-18T02:02:06.496Z,99450.22
2022-11-18T02:04:34.517Z,99438.19
2022-11-18T02:07:02.363Z,99435.94
2022-11-18T02:09:30.591Z,99418.13
2022-11-18T02:11:58.109Z,99406.75
2022-11-18T02:14:30.501Z,99397.22
2022-11-18T02:17:21.055Z,99375.13
2022-11-18T02:19:48.575Z,99376.25
2022-11-18T02:22:31.080Z,99373.19
2022-11-18T02:25:13.709Z,99365.97
2022-11-18T02:27:59.628Z,99345.63
2022-11-18T02:30:30.268Z,99349.22
2022-11-18T02:33:00.698Z,99358.72
2022-11-18T02:35:28.478Z,99357.03
2022-11-18T02:38:02.229Z,99345.31
2022-11-18T02:40:31.925Z,99330.66
2022-11-18T02:43:04.800Z,99334.56
2022-11-18T02:45:33.093Z,99337.84
2022-11-18T02:48:04.355Z,99337.03
2022-11-18T02:50:34.149Z,99326.38
2022-11-18T02:53:03.260Z,99331.72
2022-11-18T02:55:32.984Z,99339.31
2022-11-18T02:58:01.410Z,99340.88
2022-11-18T03:00:28.859Z,99333.78
2022-11-18T03:02:56.214Z,99330.75
2022-11-18T03:05:30.517Z,99346.03
2022-11-18T03:08:01.528Z,99361.72
2022-11-18T03:10:32.477Z,99359.66
2022-11-18T03:13:08.784Z,99357.16
2022-11-18T03:15:36.975Z,99360.53
2022-11-18T03:18:14.991Z,99384.88
2022-11-18T03:20:48.884Z,99398.03
2022-11-18T03:23:29.133Z,99402.91
2022-11-18T03:25:56.466Z,99403.13
2022-11-18T03:28:27.278Z,99398.59
2022-11-18T03:31:15.277Z,99385.09
2022-11-18T03:33:47.085Z,99370.00
2022-11-18T03:36:16.590Z,99361.16
2022-11-18T03:38:51.741Z,99347.75
2022-11-18T03:41:21.180Z,99348.84
2022-11-18T03:43:56.254Z,99335.16
2022-11-18T03:46:26.000Z,99309.56
2022-11-18T03:48:55.262Z,99299.31
2022-11-18T03:51:24.748Z,99298.81
2022-11-18T03:53:54.863Z,99305.66
2022-11-18T03:56:25.829Z,99310.09
2022-11-18T03:59:13.387Z,99305.25
2022-11-18T04:01:47.304Z,99306.94
2022-11-18T04:04:14.989Z,99310.97
2022-11-18T04:06:46.334Z,99317.16
2022-11-18T04:09:19.008Z,99330.00
2022-11-18T04:12:05.007Z,99338.31
2022-11-18T04:14:35.279Z,99344.53
2022-11-18T04:17:10.578Z,99342.72
2022-11-18T04:19:38.162Z,99339.50
2022-11-18T04:22:05.560Z,99336.38
2022-11-18T04:24:33.264Z,99331.19
2022-11-18T04:27:02.683Z,99333.63
2022-11-18T04:29:30.559Z,99338.25
2022-11-18T04:31:58.190Z,99346.97
2022-11-18T04:34:25.707Z,99352.34
2022-11-18T04:36:53.034Z,99345.13
2022-11-18T04:39:20.443Z,99336.41
2022-11-18T04:41:57.278Z,99318.84
2022-11-18T04:44:26.211Z,99312.44
2022-11-18T04:46:54.527Z,99310.75
2022-11-18T04:49:22.353Z,99312.53
2022-11-18T04:51:49.775Z,99308.66
2022-11-18T04:54:17.463Z,99311.56
2022-11-18T04:56:49.009Z,99311.84
2022-11-18T04:59:19.318Z,99300.69
2022-11-18T05:01:47.196Z,99298.19
2022-11-18T05:04:16.002Z,99314.38
2022-11-18T05:06:43.529Z,99313.81
2022-11-18T05:09:11.419Z,99313.78
2022-11-18T05:11:58.401Z,99315.47
2022-11-18T05:14:27.069Z,99318.28
2022-11-18T05:16:55.554Z,99309.25
2022-11-18T05:19:23.476Z,99311.19
2022-11-18T05:21:50.903Z,99309.81
2022-11-18T05:24:18.355Z,99307.28
2022-11-18T05:26:46.023Z,99310.63
2022-11-18T05:29:13.659Z,99309.06
2022-11-18T05:31:41.460Z,99306.03
2022-11-18T05:34:08.876Z,99293.03
2022-11-18T05:36:36.232Z,99294.00
2022-11-18T05:39:03.571Z,99290.91
2022-11-18T05:41:49.750Z,99285.16
2022-11-18T05:44:17.646Z,99293.75
2022-11-18T05:46:45.008Z,99296.13
2022-11-18T05:49:12.495Z,99299.66
2022-11-18T05:51:40.241Z,99302.19
2022-11-18T05:54:09.033Z,99311.72
2022-11-18T05:56:41.009Z,99305.34
2022-11-18T05:59:08.365Z,99318.88
2022-11-18T06:01:41.811Z,99318.88
2022-11-18T06:04:13.088Z,99327.19
2022-11-18T06:06:40.946Z,99331.72
2022-11-18T06:09:08.981Z,99333.56
2022-11-18T06:11:41.231Z,99332.72
2022-11-18T06:14:16.484Z,99329.97
2022-11-18T06:16:47.755Z,99329.41
2022-11-18T06:19:16.824Z,99335.34
2022-11-18T06:21:45.384Z,99336.19
2022-11-18T06:24:13.877Z,99340.88
2022-11-18T06:26:41.885Z,99338.50
2022-11-18T06:29:12.657Z,99345.53
2022-11-18T06:31:40.041Z,99343.31
2022-11-18T06:34:07.839Z,99341.66
2022-11-18T06:36:35.492Z,99344.66
2022-11-18T06:39:04.265Z,99349.78
2022-11-18T06:41:32.924Z,99359.28
2022-11-18T06:44:00.462Z,99357.53
2022-11-18T06:46:46.991Z,99361.66
2022-11-18T06:49:14.375Z,99350.34
2022-11-18T06:51:42.096Z,99353.75
2022-11-18T06:54:11.119Z,99358.44
2022-11-18T06:56:39.082Z,99369.53
2022-11-18T06:59:06.937Z,99360.09
2022-11-18T07:01:36.189Z,99360.78
2022-11-18T07:04:04.918Z,99354.47
2022-11-18T07:06:33.376Z,99365.47
2022-11-18T07:09:05.214Z,99366.09
2022-11-18T07:11:32.786Z,99365.84
2022-11-18T07:14:01.313Z,99367.50
2022-11-18T07:16:29.761Z,99373.50
2022-11-18T07:18:57.247Z,99385.47
2022-11-18T07:21:26.569Z,99382.31
2022-11-18T07:23:54.692Z,99390.59
2022-11-18T07:26:22.538Z,99397.88
2022-11-18T07:28:49.933Z,99403.94
2022-11-18T07:31:19.463Z,99412.34
2022-11-18T07:33:47.326Z,99409.44
2022-11-18T07:36:16.094Z,99418.44
2022-11-18T07:38:43.687Z,99413.59
2022-11-18T07:41:17.891Z,99417.19
2022-11-18T07:43:45.354Z,99427.78
2022-11-18T07:46:22.246Z,99433.34
2022-11-18T07:48:50.794Z,99439.06
2022-11-18T07:51:22.018Z,99444.72
2022-11-18T07:53:49.591Z,99443.22
2022-11-18T07:56:18.141Z,99444.72
2022-11-18T07:58:45.556Z,99441.25
2022-11-18T08:01:15.062Z,99433.38
2022-11-18T08:03:42.920Z,99434.50
2022-11-18T08:06:11.327Z,99435.06
2022-11-18T08:08:39.145Z,99428.56
2022-11-18T08:11:08.633Z,99435.34
2022-11-18T08:13:36.199Z,99428.31
2022-11-18T08:16:04.175Z,99431.63
2022-11-18T08:18:33.202Z,99424.41
2022-11-18T08:21:04.116Z,99432.97
2022-11-18T08:23:36.089Z,99428.38
2022-11-18T08:26:07.697Z,99424.72
2022-11-18T08:28:35.792Z,99418.16
2022-11-18T08:31:10.978Z,99419.88
2022-11-18T08:33:39.521Z,99423.75
2022-11-18T08:36:08.337Z,99421.75
2022-11-18T08:38:36.283Z,99424.66
2022-11-18T08:41:05.391Z,99418.69
2022-11-18T08:43:34.822Z,99416.91
2022-11-18T08:46:02.370Z,99417.72
2022-11-18T08:48:29.686Z,99419.81
2022-11-18T08:50:57.900Z,99416.75
2022-11-18T08:53:25.446Z,99419.16
2022-11-18T08:55:59.737Z,99417.56
2022-11-18T08:58:27.297Z,99404.38
2022-11-18T09:00:54.859Z,99414.13
2022-11-18T09:03:22.671Z,99413.66
2022-11-18T09:05:50.591Z,99402.91
2022-11-18T09:08:17.952Z,99410.84
2022-11-18T09:10:45.231Z,99409.78
2022-11-18T09:13:40.345Z,99414.88
2022-11-18T09:16:00.863Z,99417.97
2022-11-18T09:18:29.459Z,99414.19
2022-11-18T09:21:04.515Z,99412.09
2022-11-18T09:23:33.303Z,99410.84
2022-11-18T09:26:08.394Z,99412.34
2022-11-18T09:28:36.130Z,99411.41
2022-11-18T09:31:05.315Z,99406.44
2022-11-18T09:33:32.712Z,99412.63
2022-11-18T09:36:00.475Z,99417.81
2022-11-18T09:38:31.946Z,99414.44
2022-11-18T09:41:11.302Z,99437.09
2022-11-18T09:43:48.156Z,99437.13
2022-11-18T09:46:19.906Z,99435.47
2022-11-18T09:49:07.468Z,99440.69
2022-11-18T09:51:39.427Z,99437.53
2022-11-18T09:54:20.724Z,99439.59
2022-11-18T09:56:49.619Z,99422.22
2022-11-18T09:59:21.839Z,99421.56
2022-11-18T10:01:49.579Z,99439.22
2022-11-18T10:04:18.601Z,99426.94
2022-11-18T10:06:48.060Z,99426.91
2022-11-18T10:09:27.700Z,99421.66
2022-11-18T10:11:58.072Z,99426.34
2022-11-18T10:14:44.041Z,99417.16
2022-11-18T10:17:34.770Z,99416.69
2022-11-18T10:20:02.093Z,99413.47
2022-11-18T10:22:53.435Z,99407.31
2022-11-18T10:25:21.506Z,99422.97
2022-11-18T10:27:50.816Z,99411.97
2022-11-18T10:30:20.223Z,99408.69
2022-11-18T10:32:53.341Z,99407.81
2022-11-18T10:35:32.328Z,99408.97
2022-11-18T10:38:14.920Z,99407.38
2022-11-18T10:41:01.472Z,99407.31
2022-11-18T10:43:48.757Z,99400.16
2022-11-18T10:46:16.459Z,99397.63
2022-11-18T10:48:43.911Z,99396.91
2022-11-18T10:51:24.808Z,99405.38
2022-11-18T10:53:52.106Z,99405.25
2022-11-18T10:56:20.062Z,99395.72
2022-11-18T10:58:50.205Z,99404.03
2022-11-18T11:01:22.338Z,99403.69
2022-11-18T11:03:56.989Z,99396.44
2022-11-18T11:06:27.879Z,99393.66
2022-11-18T11:08:57.260Z,99415.97
2022-11-18T11:11:33.867Z,99397.66
2022-11-18T11:14:05.524Z,99404.28
2022-11-18T11:16:36.341Z,99404.25
2022-11-18T11:19:04.247Z,99400.56
2022-11-18T11:21:32.440Z,99403.63
2022-11-18T11:23:59.938Z,99403.53
2022-11-18T11:29:24.144Z,99401.72
2022-11-18T11:31:59.637Z,99411.75
2022-11-18T11:34:59.453Z,99411.84
2022-11-18T11:37:46.665Z,99416.13
2022-11-18T11:40:34.095Z,99412.88
2022-11-18T11:43:07.650Z,99404.16
2022-11-18T11:45:37.774Z,99414.78
2022-11-18T11:48:08.031Z,99418.47
2022-11-18T11:50:59.987Z,99408.97
2022-11-18T11:54:01.133Z,99407.66
2022-11-18T11:56:28.562Z,99419.03
2022-11-18T11:59:06.632Z,99410.44
2022-11-18T12:01:57.692Z,99403.78
2022-11-18T12:04:40.971Z,99406.28
2022-11-18T12:07:14.640Z,99408.97
2022-11-18T12:09:45.316Z,99399.75
2022-11-18T12:12:35.993Z,99397.25
2022-11-18T12:15:18.720Z,99393.44
2022-11-18T12:18:06.428Z,99397.44
2022-11-18T12:20:43.062Z,99405.06
2022-11-18T12:23:14.053Z,99415.31
2022-11-18T12:25:52.980Z,99413.38
2022-11-18T12:28:31.251Z,99411.75
2022-11-18T12:31:17.459Z,99417.50
2022-11-18T12:33:46.736Z,99418.19
2022-11-18T12:36:29.426Z,99410.63
2022-11-18T12:38:57.339Z,99408.94
2022-11-18T12:41:58.956Z,99419.19
2022-11-18T12:44:27.902Z,99418.78
2022-11-18T12:46:56.570Z,99404.91
2022-11-18T12:49:24.491Z,99402.63
2022-11-18T12:51:52.544Z,99401.59
2022-11-18T12:54:32.030Z,99396.19
2022-11-18T12:57:02.077Z,99392.09
2022-11-18T12:59:34.329Z,99393.66
2022-11-18T13:02:06.462Z,99392.91
2022-11-18T13:04:33.901Z,99400.75
2022-11-18T13:07:02.281Z,99408.84
2022-11-18T13:09:32.470Z,99405.03
2022-11-18T13:12:14.445Z,99400.31
2022-11-18T13:15:01.661Z,99413.50
2022-11-18T13:17:47.522Z,99417.38
2022-11-18T13:20:22.894Z,99420.63
2022-11-18T13:23:16.336Z,99427.94
2022-11-18T13:25:45.893Z,99419.16
2022-11-18T13:28:32.178Z,99422.22
2022-11-18T13:31:02.937Z,99411.69
2022-11-18T13:33:34.955Z,99415.78
2022-11-18T13:36:03.027Z,99415.03
2022-11-18T13:38:30.332Z,99424.38
2022-11-18T13:41:14.864Z,99416.09
2022-11-18T13:43:42.264Z,99413.63
2022-11-18T13:46:13.967Z,99418.38
2022-11-18T13:48:46.254Z,99423.97
2022-11-18T13:51:14.087Z,99421.91
2022-11-18T13:53:43.495Z,99426.56
2022-11-18T13:56:23.425Z,99425.41
2022-11-18T14:01:38.610Z,99437.09
2022-11-18T14:04:16.034Z,99435.88
2022-11-18T14:06:43.930Z,99442.41
2022-11-18T14:09:11.649Z,99451.84
2022-11-18T14:11:42.856Z,99448.25
2022-11-18T14:14:10.659Z,99450.88
2022-11-18T14:16:40.204Z,99444.44
2022-11-18T14:19:13.297Z,99449.59
2022-11-18T14:21:41.179Z,99445.88
2022-11-18T14:24:14.578Z,99450.47
2022-11-18T14:26:42.302Z,99448.81
2022-11-18T14:29:23.420Z,99446.94
2022-11-18T14:32:04.981Z,99449.63
2022-11-18T14:34:32.407Z,99451.94
2022-11-18T14:37:00.309Z,99463.28
2022-11-18T14:39:29.651Z,99457.63
2022-11-18T14:41:58.440Z,99464.59
2022-11-18T14:44:27.486Z,99479.38
2022-11-18T14:46:59.413Z,99471.47
2022-11-18T14:49:27.621Z,99472.75
2022-11-18T14:51:55.266Z,99478.47
2022-11-18T14:54:26.695Z,99467.81
2022-11-18T14:56:58.471Z,99468.06
2022-11-18T14:59:26.491Z,99469.75
2022-11-18T15:01:54.942Z,99473.09
2022-11-18T15:04:22.509Z,99485.50
2022-11-18T15:06:49.971Z,99493.09
2022-11-18T15:09:17.499Z,99500.38
2022-11-18T15:11:44.893Z,99501.88
2022-11-18T15:14:12.593Z,99500.38
2022-11-18T15:16:39.948Z,99500.69
2022-11-18T15:19:13.255Z,99495.56
2022-11-18T15:21:41.001Z,99500.50
2022-11-18T15:24:08.453Z,99510.50
2022-11-18T15:26:38.493Z,99515.75
2022-11-18T15:29:31.744Z,99524.59
2022-11-18T15:32:00.254Z,99527.88
2022-11-18T15:34:28.113Z,99522.53
2022-11-18T15:36:55.412Z,99524.00
2022-11-18T15:39:23.518Z,99531.06
2022-11-18T15:41:50.925Z,99534.16
2022-11-18T15:44:19.104Z,99535.91
2022-11-18T15:46:48.066Z,99546.28
2022-11-18T15:49:16.465Z,99537.78
2022-11-18T15:51:44.277Z,99539.69
2022-11-18T15:54:12.184Z,99539.28
2022-11-18T15:56:41.627Z,99543.88
2022-11-18T15:59:10.264Z,99542.69
2022-11-18T16:01:38.779Z,99543.84
2022-11-18T16:04:07.219Z,99540.41
2022-11-18T16:06:35.176Z,99533.59
2022-11-18T16:09:02.893Z,99528.47
2022-11-18T16:11:49.256Z,99520.78
2022-11-18T16:14:18.382Z,99531.13
2022-11-18T16:16:47.223Z,99532.25
2022-11-18T16:19:15.883Z,99534.28
2022-11-18T16:21:47.135Z,99534.03
2022-11-18T16:24:16.695Z,99538.84
2022-11-18T16:26:44.341Z,99540.66
2022-11-18T16:29:12.944Z,99545.78
2022-11-18T16:31:40.648Z,99549.50
2022-11-18T16:34:08.953Z,99556.56
2022-11-18T16:36:36.627Z,99564.69
2022-11-18T16:39:15.170Z,99566.81
2022-11-18T16:41:42.954Z,99582.47
2022-11-18T16:44:19.435Z,99592.78
2022-11-18T16:46:48.733Z,99599.13
2022-11-18T16:49:17.535Z,99617.97
2022-11-18T16:51:46.753Z,99621.81
2022-11-18T16:54:19.082Z,99623.94
2022-11-18T16:56:47.611Z,99629.03
2022-11-18T16:59:17.274Z,99637.38
2022-11-18T17:01:45.290Z,99641.22
2022-11-18T17:04:12.881Z,99651.47
2022-11-18T17:06:40.875Z,99650.50
2022-11-18T17:09:14.563Z,99645.53
2022-11-18T17:11:42.569Z,99633.53
2022-11-18T17:14:10.188Z,99628.25
2022-11-18T17:16:37.636Z,99631.56
2022-11-18T17:19:11.346Z,99644.34
2022-11-18T17:21:39.522Z,99660.00
2022-11-18T17:24:07.413Z,99664.31
2022-11-18T17:26:34.740Z,99666.13
2022-11-18T17:29:03.090Z,99670.94
2022-11-18T17:31:31.034Z,99675.81
2022-11-18T17:33:58.554Z,99679.66
2022-11-18T17:36:26.817Z,99684.25
2022-11-18T17:38:55.606Z,99681.63
2022-11-18T17:41:43.316Z,99685.91
2022-11-18T17:44:12.494Z,99693.13
2022-11-18T17:46:40.296Z,99702.78
2022-11-18T17:49:11.722Z,99717.44
2022-11-18T17:51:40.097Z,99725.19
2022-11-18T17:54:08.011Z,99724.75
2022-11-18T17:56:35.414Z,99727.50
2022-11-18T17:59:03.416Z,99739.56
2022-11-18T18:01:31.190Z,99743.81
2022-11-18T18:03:59.447Z,99741.16
2022-11-18T18:06:27.722Z,99741.69
2022-11-18T18:08:58.795Z,99743.53
2022-11-18T18:11:26.586Z,99745.34
2022-11-18T18:14:17.020Z,99744.50
2022-11-18T18:16:46.815Z,99753.63
2022-11-18T18:19:21.498Z,99735.22
2022-11-18T18:21:49.400Z,99740.28
2022-11-18T18:24:19.731Z,99738.34
2022-11-18T18:26:47.339Z,99739.69
2022-11-18T18:29:15.434Z,99743.66
2022-11-18T18:31:43.211Z,99747.22
2022-11-18T18:34:10.606Z,99738.28
2022-11-18T18:36:38.096Z,99725.72
2022-11-18T18:39:05.459Z,99717.34
2022-11-18T18:41:32.889Z,99725.38
2022-11-18T18:44:00.942Z,99723.44
2022-11-18T18:46:29.238Z,99722.91
2022-11-18T18:49:04.586Z,99730.88
2022-11-18T18:51:34.778Z,99738.28
2022-11-18T18:54:02.170Z,99734.75
2022-11-18T18:56:29.557Z,99731.13
2022-11-18T18:58:57.810Z,99733.59
2022-11-18T19:01:26.530Z,99731.44
2022-11-18T19:03:58.581Z,99730.84
2022-11-18T19:09:14.960Z,99729.53
2022-11-18T19:12:01.876Z,99730.28
2022-11-18T19:14:29.608Z,99734.78
2022-11-18T19:16:57.364Z,99731.19
2022-11-18T19:19:47.013Z,99734.91
2022-11-18T19:22:15.216Z,99732.69
2022-11-18T19:24:49.595Z,99722.03
2022-11-18T19:27:18.667Z,99721.84
2022-11-18T19:29:46.061Z,99729.59
2022-11-18T19:32:13.599Z,99713.84
2022-11-18T19:34:42.035Z,99721.06
2022-11-18T19:37:09.945Z,99722.72
2022-11-18T19:39:38.642Z,99746.13
2022-11-18T19:42:07.679Z,99733.13
2022-11-18T19:44:35.037Z,99735.94
2022-11-18T19:47:02.395Z,99732.59
2022-11-18T19:49:29.752Z,99732.38
2022-11-18T19:51:57.203Z,99731.63
2022-11-18T19:54:24.601Z,99737.84
2022-11-18T19:56:52.212Z,99749.47
2022-11-18T19:59:20.235Z,99759.13
2022-11-18T20:01:48.365Z,99765.53
2022-11-18T20:04:15.743Z,99764.66
2022-11-18T20:06:43.515Z,99768.78
2022-11-18T20:09:11.757Z,99767.69
2022-11-18T20:11:39.792Z,99766.09
2022-11-18T20:14:08.404Z,99763.03
2022-11-18T20:16:37.428Z,99775.44
2022-11-18T20:19:10.832Z,99786.25
2022-11-18T20:21:39.296Z,99788.88
2022-11-18T20:24:08.077Z,99784.66
2022-11-18T20:26:36.924Z,99789.31
2022-11-18T20:29:05.579Z,99791.03
2022-11-18T20:31:33.822Z,99785.19
2022-11-18T20:34:01.600Z,99788.66
2022-11-18T20:36:33.125Z,99790.22
2022-11-18T20:39:01.867Z,99789.28
2022-11-18T20:41:30.664Z,99788.28
2022-11-18T20:43:58.440Z,99791.91
2022-11-18T20:46:27.016Z,99799.66
2022-11-18T20:48:55.239Z,99806.13
2022-11-18T20:51:23.965Z,99817.19
2022-11-18T20:53:51.869Z,99816.97
2022-11-18T20:56:21.283Z,99821.00
2022-11-18T20:58:49.048Z,99828.25
2022-11-18T21:01:18.065Z,99827.16
2022-11-18T21:03:49.485Z,99821.91
2022-11-18T21:06:16.911Z,99820.50
2022-11-18T21:08:44.966Z,99820.47
2022-11-18T21:11:13.671Z,99812.59
2022-11-18T21:14:00.814Z,99813.25
2022-11-18T21:16:28.836Z,99826.03
2022-11-18T21:18:57.358Z,99824.38
2022-11-18T21:21:43.968Z,99813.16
2022-11-18T21:24:18.484Z,99824.06
2022-11-18T21:26:47.370Z,99819.66
2022-11-18T21:29:16.096Z,99825.66
2022-11-18T21:31:43.889Z,99824.09
2022-11-18T21:34:11.492Z,99833.72
2022-11-18T21:36:45.942Z,99829.09
2022-11-18T21:39:16.630Z,99814.47
2022-11-18T21:41:44.496Z,99831.22
2022-11-18T21:44:12.956Z,99831.63
2022-11-18T21:46:41.596Z,99822.69
2022-11-18T21:49:09.311Z,99832.00
2022-11-18T21:51:37.435Z,99830.06
2022-11-18T21:54:04.787Z,99830.56
2022-11-18T21:56:32.614Z,99831.78
2022-11-18T21:59:01.118Z,99840.69
2022-11-18T22:01:29.904Z,99851.34
2022-11-18T22:03:58.181Z,99843.19
2022-11-18T22:06:26.470Z,99846.44
2022-11-18T22:08:54.439Z,99852.28
2022-11-18T22:11:22.596Z,99850.38
2022-11-18T22:13:50.955Z,99842.88
2022-11-18T22:16:23.403Z,99849.66
2022-11-18T22:18:57.370Z,99852.66
2022-11-18T22:21:26.808Z,99857.75
2022-11-18T22:23:59.479Z,99865.88
2022-11-18T22:26:27.744Z,99861.31
2022-11-18T22:28:56.368Z,99870.88
2022-11-18T22:31:24.481Z,99858.47
2022-11-18T22:33:52.321Z,99858.84
2022-11-18T22:36:21.072Z,99885.88
2022-11-18T22:38:48.827Z,99891.69
2022-11-18T22:41:36.405Z,99893.91
2022-11-18T22:44:07.647Z,99890.59
2022-11-18T22:46:36.343Z,99891.06
2022-11-18T22:49:04.503Z,99900.09
2022-11-18T22:51:32.121Z,99912.50
2022-11-18T22:54:30.689Z,99911.78
2022-11-18T22:56:47.622Z,99914.72
2022-11-18T22:59:15.103Z,99916.28
2022-11-18T23:01:42.599Z,99911.66
2022-11-18T23:04:10.182Z,99910.81
2022-11-18T23:06:37.667Z,99920.44
2022-11-18T23:09:04.954Z,99924.50
2022-11-18T23:11:50.941Z,99936.41
2022-11-18T23:14:18.895Z,99933.88
2022-11-18T23:16:46.449Z,99940.56
2022-11-18T23:19:15.453Z,99948.91
2022-11-18T23:21:43.293Z,99945.09
2022-11-18T23:24:11.931Z,99942.59
2022-11-18T23:26:39.631Z,99953.16
2022-11-18T23:29:07.044Z,99956.97
2022-11-18T23:31:34.431Z,99953.63
2022-11-18T23:34:02.308Z,99959.25
2022-11-18T23:36:30.218Z,99950.19
2022-11-18T23:38:57.715Z,99947.19
2022-11-18T23:41:25.617Z,99954.84
2022-11-18T23:43:54.238Z,99950.09
2022-11-18T23:46:22.164Z,99950.28
2022-11-18T23:48:49.599Z,99952.28
2022-11-18T23:51:18.072Z,99963.22
2022-11-18T23:53:45.984Z,99953.75
2022-11-18T23:56:15.406Z,99957.94
2022-11-18T23:58:44.297Z,99950.53
